Time;durP1;ratioP1;P1;durP2;ratioP2;P2;SDS_P1;SDS_P2;PMS_P1;PMS_P2;Temp;Humidity;BMP_temperature;BMP_pressure;BME280_temperature;BME280_humidity;BME280_pressure;Samples;Min_cycle;Max_cycle;Signal;HPM_P1;HPM_P2
2023/11/10 00:01:03;;;;;;;0.70;0.70;;;15.80;67.60;;;;;;5112909;28;20631;-64
2023/11/10 00:03:29;;;;;;;1.30;0.82;;;15.80;67.90;;;;;;5113339;28;20177;-65
2023/11/10 00:05:55;;;;;;;0.80;0.80;;;15.80;67.70;;;;;;5112513;28;20219;-64
2023/11/10 00:08:21;;;;;;;0.82;0.82;;;15.70;67.70;;;;;;5112851;28;20225;-65
2023/11/10 00:10:47;;;;;;;2.65;1.02;;;15.70;67.80;;;;;;5113047;28;20267;-65
2023/11/10 00:13:15;;;;;;;0.82;0.82;;;15.70;67.70;;;;;;5112163;28;20161;-64
2023/11/10 00:15:41;;;;;;;0.75;0.75;;;15.70;67.70;;;;;;5115185;28;20169;-64
2023/11/10 00:18:06;;;;;;;1.48;1.00;;;15.70;67.60;;;;;;5116956;28;20256;-64
2023/11/10 00:20:34;;;;;;;0.77;0.77;;;15.70;67.70;;;;;;5116438;28;20692;-64
2023/11/10 00:22:59;;;;;;;1.13;1.00;;;15.70;67.60;;;;;;5116773;28;20177;-64
2023/11/10 00:25:25;;;;;;;1.27;1.17;;;15.70;67.60;;;;;;5117184;28;20666;-64
2023/11/10 00:27:50;;;;;;;1.85;1.08;;;15.70;67.70;;;;;;5116494;28;20228;-65
2023/11/10 00:30:17;;;;;;;1.48;0.90;;;15.70;67.60;;;;;;5117049;28;20196;-64
2023/11/10 00:32:43;;;;;;;3.08;1.00;;;15.70;67.70;;;;;;5116854;28;20193;-64
2023/11/10 00:35:09;;;;;;;1.98;1.05;;;15.70;67.80;;;;;;5116189;28;20584;-65
2023/11/10 00:37:35;;;;;;;1.67;1.00;;;15.70;67.80;;;;;;5116835;28;20580;-65
2023/11/10 00:40:01;;;;;;;0.77;0.70;;;15.70;67.80;;;;;;5116520;28;20703;-65
2023/11/10 00:42:27;;;;;;;1.20;1.05;;;15.70;67.70;;;;;;5116285;28;20169;-64
2023/11/10 00:44:53;;;;;;;0.82;0.80;;;15.70;67.80;;;;;;5116729;28;20720;-64
2023/11/10 00:47:18;;;;;;;1.30;1.20;;;15.70;67.40;;;;;;5097289;28;20585;-64
2023/11/10 00:49:44;;;;;;;0.95;0.85;;;15.60;67.70;;;;;;5116778;28;20226;-64
2023/11/10 00:52:10;;;;;;;0.93;0.80;;;15.60;67.70;;;;;;5116382;28;20215;-64
2023/11/10 00:54:36;;;;;;;1.40;1.10;;;15.60;67.80;;;;;;5115834;28;20169;-64
2023/11/10 00:57:01;;;;;;;1.15;1.00;;;15.70;67.70;;;;;;5116530;28;20177;-65
2023/11/10 00:59:27;;;;;;;1.25;1.00;;;15.70;67.70;;;;;;5116672;28;20509;-65
2023/11/10 01:01:53;;;;;;;0.90;0.90;;;15.60;67.70;;;;;;5115818;28;20246;-64
2023/11/10 01:04:18;;;;;;;0.93;0.88;;;15.60;67.80;;;;;;5115936;28;20555;-64
2023/11/10 01:06:44;;;;;;;1.10;1.00;;;15.60;67.70;;;;;;5116319;28;20173;-65
2023/11/10 01:09:11;;;;;;;1.33;1.23;;;15.60;67.70;;;;;;5115764;28;20615;-65
2023/11/10 01:11:36;;;;;;;2.92;0.90;;;15.60;67.70;;;;;;5116435;28;20177;-64
2023/11/10 01:14:04;;;;;;;1.60;0.85;;;15.60;67.80;;;;;;5116169;28;20166;-64
2023/11/10 01:16:30;;;;;;;0.95;0.93;;;15.60;67.80;;;;;;5115558;28;20177;-64
2023/11/10 01:18:56;;;;;;;1.52;1.05;;;15.60;67.70;;;;;;5116079;28;20221;-64
2023/11/10 01:21:21;;;;;;;0.80;0.80;;;15.60;67.80;;;;;;5115787;28;20185;-65
2023/11/10 01:23:47;;;;;;;1.40;0.85;;;15.60;67.80;;;;;;5115404;28;20173;-64
2023/11/10 01:26:13;;;;;;;0.95;0.80;;;15.60;67.90;;;;;;5114465;28;20244;-64
2023/11/10 01:28:39;;;;;;;1.70;1.20;;;15.60;67.90;;;;;;5115582;28;20200;-64
2023/11/10 01:31:04;;;;;;;0.65;0.60;;;15.60;67.80;;;;;;5114675;28;20264;-64
2023/11/10 01:33:30;;;;;;;1.05;0.90;;;15.60;67.70;;;;;;5115927;28;20230;-65
2023/11/10 01:35:56;;;;;;;1.27;1.17;;;15.60;67.70;;;;;;5115792;28;20169;-65
2023/11/10 01:38:21;;;;;;;1.05;0.90;;;15.60;67.70;;;;;;5114698;28;20170;-65
2023/11/10 01:40:48;;;;;;;1.35;0.77;;;15.60;67.70;;;;;;5115921;28;20260;-65
2023/11/10 01:43:16;;;;;;;0.90;0.90;;;15.60;67.80;;;;;;5115691;28;20173;-65
2023/11/10 01:45:42;;;;;;;1.10;0.85;;;15.50;67.60;;;;;;5114769;28;20295;-64
2023/11/10 01:48:11;;;;;;;1.00;0.88;;;15.50;67.70;;;;;;5115117;28;20701;-64
2023/11/10 01:50:38;;;;;;;1.42;0.80;;;15.50;67.70;;;;;;5114789;28;20259;-64
2023/11/10 01:53:06;;;;;;;1.67;1.00;;;15.50;67.60;;;;;;5097396;28;20193;-64
2023/11/10 01:55:32;;;;;;;1.13;0.80;;;15.50;67.60;;;;;;5081274;28;20252;-65
2023/11/10 01:57:57;;;;;;;1.10;0.80;;;15.60;67.70;;;;;;5096446;28;20288;-65
2023/11/10 02:00:29;;;;;;;0.88;0.68;;;15.50;67.60;;;;;;5097167;28;20632;-65
2023/11/10 02:03:04;;;;;;;1.48;0.90;;;15.50;67.60;;;;;;5115308;28;20533;-65
2023/11/10 02:05:33;;;;;;;1.60;1.10;;;15.50;68.30;;;;;;5097882;28;20208;-64
2023/11/10 02:07:59;;;;;;;1.55;1.00;;;15.50;68.50;;;;;;5115158;28;20164;-64
2023/11/10 02:10:24;;;;;;;1.35;1.25;;;15.50;67.70;;;;;;5115405;28;20256;-65
2023/11/10 02:12:54;;;;;;;0.82;0.82;;;15.50;67.40;;;;;;5114375;28;20196;-64
2023/11/10 02:15:23;;;;;;;0.80;0.80;;;15.50;67.70;;;;;;5114831;28;20169;-64
2023/11/10 02:17:49;;;;;;;1.05;0.90;;;15.50;67.80;;;;;;5115026;28;20170;-64
2023/11/10 02:20:14;;;;;;;2.13;1.00;;;15.40;67.60;;;;;;5114151;28;20176;-64
2023/11/10 02:22:44;;;;;;;1.65;1.10;;;15.50;67.70;;;;;;5115151;28;20246;-65
2023/11/10 02:25:16;;;;;;;1.30;1.00;;;15.50;67.70;;;;;;5114306;28;20234;-65
2023/11/10 02:27:41;;;;;;;2.13;1.10;;;15.50;67.70;;;;;;5114111;28;20173;-65
2023/11/10 02:30:07;;;;;;;1.48;0.88;;;15.50;67.70;;;;;;5114350;28;20173;-65
2023/11/10 02:32:33;;;;;;;0.90;0.80;;;15.50;67.80;;;;;;5114720;28;20169;-65
2023/11/10 02:34:59;;;;;;;1.25;0.90;;;15.50;67.90;;;;;;5113530;28;20238;-65
2023/11/10 02:37:25;;;;;;;0.65;0.65;;;15.40;67.60;;;;;;5114711;28;20273;-65
2023/11/10 02:39:50;;;;;;;0.90;0.90;;;15.40;67.60;;;;;;5113761;28;20695;-65
2023/11/10 02:42:16;;;;;;;0.82;0.80;;;15.40;67.60;;;;;;5114131;28;20260;-65
2023/11/10 02:44:41;;;;;;;0.80;0.80;;;15.50;67.80;;;;;;5114100;28;20291;-65
2023/11/10 02:47:07;;;;;;;0.82;0.82;;;15.50;67.80;;;;;;5113218;28;20267;-64
2023/11/10 02:49:32;;;;;;;0.75;0.75;;;15.50;67.80;;;;;;5114295;28;20304;-65
2023/11/10 02:51:58;;;;;;;2.75;1.00;;;15.50;67.70;;;;;;5114300;28;20268;-65
2023/11/10 02:54:23;;;;;;;1.35;0.93;;;15.40;67.60;;;;;;5113754;28;20277;-66
2023/11/10 02:56:49;;;;;;;1.25;0.80;;;15.40;67.70;;;;;;5114360;28;20207;-66
2023/11/10 02:59:14;;;;;;;1.48;1.10;;;15.40;67.60;;;;;;5113768;28;20205;-65
2023/11/10 03:01:41;;;;;;;0.70;0.70;;;15.40;67.70;;;;;;5113360;28;20184;-65
2023/11/10 03:04:06;;;;;;;1.90;0.60;;;15.40;67.70;;;;;;5114009;28;20223;-65
2023/11/10 03:06:32;;;;;;;1.17;0.95;;;15.40;67.60;;;;;;5114229;28;20176;-66
2023/11/10 03:08:58;;;;;;;1.40;0.80;;;15.40;67.60;;;;;;5113327;28;20569;-65
2023/11/10 03:11:24;;;;;;;0.88;0.82;;;15.40;67.70;;;;;;5113600;28;20590;-66
2023/11/10 03:13:51;;;;;;;0.85;0.82;;;15.40;67.60;;;;;;5113931;28;20170;-65
2023/11/10 03:16:16;;;;;;;1.20;0.80;;;15.40;67.60;;;;;;5112884;28;20901;-65
2023/11/10 03:18:42;;;;;;;1.33;0.93;;;15.40;67.70;;;;;;5114010;28;20542;-65
2023/11/10 03:21:08;;;;;;;0.75;0.75;;;15.40;67.60;;;;;;5113719;28;20165;-65
2023/11/10 03:23:34;;;;;;;1.02;0.85;;;15.40;67.60;;;;;;5113236;28;20180;-66
2023/11/10 03:26:00;;;;;;;1.05;0.95;;;15.40;67.50;;;;;;5113464;28;20213;-65
2023/11/10 03:28:26;;;;;;;0.68;0.68;;;15.40;67.60;;;;;;5097377;27;20218;-65
2023/11/10 03:30:52;;;;;;;2.03;0.90;;;15.40;67.60;;;;;;5133757;27;20542;-65
2023/11/10 03:33:17;;;;;;;2.10;0.80;;;15.40;67.50;;;;;;5134129;27;20172;-65
2023/11/10 03:35:44;;;;;;;0.85;0.80;;;15.40;67.70;;;;;;5134308;27;20202;-66
2023/11/10 03:38:10;;;;;;;1.13;0.80;;;15.30;67.40;;;;;;5132596;27;20183;-66
2023/11/10 03:40:36;;;;;;;1.77;0.60;;;15.40;67.60;;;;;;5134032;27;20294;-66
2023/11/10 03:43:01;;;;;;;2.15;0.88;;;15.30;67.60;;;;;;5133779;27;20187;-65
2023/11/10 03:45:27;;;;;;;1.27;0.93;;;15.30;67.70;;;;;;5133363;27;20212;-65
2023/11/10 03:47:53;;;;;;;1.88;0.80;;;15.30;67.40;;;;;;5133964;27;20220;-65
2023/11/10 03:50:18;;;;;;;1.33;0.80;;;15.30;67.50;;;;;;5132603;27;20519;-65
2023/11/10 03:52:44;;;;;;;2.63;0.80;;;15.30;67.50;;;;;;5134042;27;20200;-65
2023/11/10 03:55:09;;;;;;;1.02;0.73;;;15.30;67.50;;;;;;5133514;27;20639;-65
2023/11/10 03:57:35;;;;;;;1.10;1.00;;;15.30;67.50;;;;;;5133069;27;20212;-65
2023/11/10 04:00:01;;;;;;;1.15;0.80;;;15.30;67.50;;;;;;5133526;27;20224;-66
2023/11/10 04:02:26;;;;;;;0.73;0.63;;;15.30;67.40;;;;;;5133966;27;20252;-65
2023/11/10 04:04:52;;;;;;;0.77;0.77;;;15.30;67.40;;;;;;5133081;28;20285;-66
2023/11/10 04:07:17;;;;;;;2.63;0.90;;;15.30;67.40;;;;;;5133705;28;20560;-65
2023/11/10 04:09:43;;;;;;;0.85;0.82;;;15.30;67.60;;;;;;5133722;28;20634;-65
2023/11/10 04:12:09;;;;;;;0.98;0.90;;;15.30;67.50;;;;;;5132692;28;20175;-66
2023/11/10 04:14:40;;;;;;;1.70;0.95;;;15.30;67.60;;;;;;5133962;28;20176;-65
2023/11/10 04:17:06;;;;;;;1.98;1.00;;;15.30;67.60;;;;;;5133492;28;20168;-65
2023/11/10 04:19:33;;;;;;;0.70;0.70;;;15.30;67.30;;;;;;5133088;28;20172;-65
2023/11/10 04:21:59;;;;;;;1.75;0.80;;;15.30;67.40;;;;;;5133192;28;20547;-65
2023/11/10 04:24:24;;;;;;;0.98;0.80;;;15.30;67.60;;;;;;5133298;28;20173;-65
2023/11/10 04:26:50;;;;;;;1.83;1.13;;;15.30;67.30;;;;;;5132801;28;20173;-65
2023/11/10 04:29:15;;;;;;;0.70;0.70;;;15.20;67.30;;;;;;5133044;28;20176;-64
2023/11/10 04:31:41;;;;;;;1.23;0.90;;;15.30;67.50;;;;;;5133711;28;20172;-65
2023/11/10 04:34:07;;;;;;;1.10;0.75;;;15.20;67.20;;;;;;5132544;28;20562;-66
2023/11/10 04:36:33;;;;;;;1.48;0.90;;;15.20;67.40;;;;;;5133532;28;20205;-66
2023/11/10 04:39:02;;;;;;;2.22;0.90;;;15.20;67.40;;;;;;5133145;28;20296;-65
2023/11/10 04:41:27;;;;;;;0.95;0.80;;;15.20;67.00;;;;;;5132685;28;20176;-65
2023/11/10 04:43:53;;;;;;;1.55;0.80;;;15.30;67.30;;;;;;5133699;28;20180;-65
2023/11/10 04:46:18;;;;;;;1.10;0.85;;;15.20;67.50;;;;;;5133084;28;20216;-64
2023/11/10 04:48:44;;;;;;;1.50;1.00;;;15.20;67.30;;;;;;5132418;28;20220;-64
2023/11/10 04:51:09;;;;;;;1.38;0.80;;;15.20;67.20;;;;;;5132999;28;20195;-65
2023/11/10 04:53:36;;;;;;;1.20;0.70;;;15.20;67.30;;;;;;5132660;28;20221;-66
2023/11/10 04:56:02;;;;;;;1.52;1.05;;;15.20;67.40;;;;;;5133034;28;20176;-66
2023/11/10 04:58:29;;;;;;;1.42;0.90;;;15.20;67.50;;;;;;5133019;28;20171;-66
2023/11/10 05:00:55;;;;;;;2.42;1.05;;;15.20;67.40;;;;;;5132509;27;20192;-65
2023/11/10 05:03:20;;;;;;;3.00;1.08;;;15.20;67.30;;;;;;5135828;27;20541;-66
2023/11/10 05:05:46;;;;;;;0.70;0.70;;;15.20;67.40;;;;;;5137084;27;20200;-65
2023/11/10 05:08:11;;;;;;;1.48;0.77;;;15.20;67.30;;;;;;5136014;27;20296;-65
2023/11/10 05:10:40;;;;;;;0.75;0.75;;;15.20;67.50;;;;;;5136818;27;20608;-65
2023/11/10 05:13:06;;;;;;;1.33;0.90;;;15.20;67.40;;;;;;5136829;27;20164;-65
2023/11/10 05:15:31;;;;;;;1.30;0.80;;;15.20;67.20;;;;;;5136328;27;20190;-65
2023/11/10 05:17:57;;;;;;;0.80;0.70;;;15.20;67.30;;;;;;5136793;27;20172;-64
2023/11/10 05:20:22;;;;;;;1.23;0.80;;;15.20;67.30;;;;;;5136770;27;20208;-65
2023/11/10 05:22:48;;;;;;;0.95;0.70;;;15.20;67.20;;;;;;5135825;27;20207;-65
2023/11/10 05:25:14;;;;;;;1.48;0.80;;;15.10;67.30;;;;;;5136312;27;20221;-65
2023/11/10 05:27:39;;;;;;;1.77;0.93;;;15.10;67.40;;;;;;5136822;27;20203;-65
2023/11/10 05:30:06;;;;;;;1.13;0.70;;;15.10;67.30;;;;;;5135451;27;20200;-65
2023/11/10 05:32:32;;;;;;;1.25;0.70;;;15.20;67.50;;;;;;5136589;27;20255;-65
2023/11/10 05:34:58;;;;;;;1.52;0.70;;;15.20;67.50;;;;;;5136458;27;20207;-65
2023/11/10 05:37:27;;;;;;;0.52;0.52;;;15.20;67.30;;;;;;5135642;27;20272;-66
2023/11/10 05:39:53;;;;;;;2.28;1.00;;;15.10;67.20;;;;;;5136493;27;20172;-65
2023/11/10 05:42:20;;;;;;;0.70;0.70;;;15.10;67.40;;;;;;5136194;27;20274;-65
2023/11/10 05:44:45;;;;;;;1.55;0.85;;;15.10;67.40;;;;;;5135484;27;20204;-64
2023/11/10 05:47:11;;;;;;;1.20;0.70;;;15.10;67.40;;;;;;5135989;27;20586;-64
2023/11/10 05:49:37;;;;;;;0.85;0.85;;;15.10;67.40;;;;;;5136072;27;20726;-64
2023/11/10 05:52:04;;;;;;;1.20;0.90;;;15.10;67.50;;;;;;5135142;27;20643;-65
2023/11/10 05:54:30;;;;;;;0.93;0.80;;;15.10;67.40;;;;;;5136000;27;20172;-66
2023/11/10 05:56:56;;;;;;;0.73;0.63;;;15.10;67.50;;;;;;5135482;27;20173;-66
2023/11/10 05:59:27;;;;;;;0.68;0.65;;;15.10;68.30;;;;;;5135874;27;20654;-66
2023/11/10 06:01:54;;;;;;;0.80;0.80;;;15.10;67.30;;;;;;5136044;27;20175;-64
2023/11/10 06:04:20;;;;;;;0.98;0.80;;;15.10;67.40;;;;;;5134978;27;20203;-65
2023/11/10 06:06:48;;;;;;;0.75;0.70;;;15.10;67.60;;;;;;5135787;27;20225;-66
2023/11/10 06:09:16;;;;;;;1.90;0.80;;;15.10;67.50;;;;;;5135428;27;20167;-66
2023/11/10 06:11:42;;;;;;;0.95;0.50;;;15.20;67.50;;;;;;5135216;27;20176;-65
2023/11/10 06:14:10;;;;;;;0.77;0.75;;;15.20;67.30;;;;;;5134943;27;20169;-64
2023/11/10 06:16:37;;;;;;;1.38;0.77;;;15.20;67.20;;;;;;5135782;27;20176;-64
2023/11/10 06:19:03;;;;;;;1.48;0.68;;;15.30;67.20;;;;;;5134592;27;20619;-64
2023/11/10 06:21:29;;;;;;;0.80;0.70;;;15.30;67.10;;;;;;5135348;27;20176;-64
2023/11/10 06:23:54;;;;;;;1.58;0.75;;;15.30;67.10;;;;;;5135689;27;20176;-65
2023/11/10 06:26:23;;;;;;;1.92;0.80;;;15.30;67.10;;;;;;5134306;27;20212;-64
2023/11/10 06:28:50;;;;;;;1.25;0.73;;;15.30;67.10;;;;;;5135518;27;20177;-65
2023/11/10 06:31:16;;;;;;;1.35;0.98;;;15.30;67.20;;;;;;5135109;27;20172;-64
2023/11/10 06:33:42;;;;;;;2.28;0.85;;;15.30;67.10;;;;;;5134624;27;20168;-65
2023/11/10 06:36:08;;;;;;;1.00;0.73;;;15.30;67.10;;;;;;5134916;27;20181;-65
2023/11/10 06:38:34;;;;;;;1.10;0.80;;;15.30;67.20;;;;;;5135398;27;20627;-65
2023/11/10 06:40:59;;;;;;;1.55;0.77;;;15.30;67.20;;;;;;5134420;27;20526;-65
2023/11/10 06:43:25;;;;;;;1.30;1.02;;;15.20;67.10;;;;;;5135051;27;20229;-65
2023/11/10 06:45:50;;;;;;;1.05;0.70;;;15.20;67.10;;;;;;5134995;27;20208;-64
2023/11/10 06:48:16;;;;;;;2.58;0.90;;;15.30;67.20;;;;;;5133900;27;20216;-65
2023/11/10 06:50:42;;;;;;;2.25;0.70;;;15.20;67.00;;;;;;5135018;27;20225;-64
2023/11/10 06:53:10;;;;;;;1.25;0.65;;;15.20;67.20;;;;;;5134027;27;20168;-65
2023/11/10 06:55:37;;;;;;;1.58;0.73;;;15.20;67.10;;;;;;5134864;27;20176;-65
2023/11/10 06:58:02;;;;;;;1.52;0.80;;;15.20;67.00;;;;;;5134594;27;20518;-65
2023/11/10 07:00:29;;;;;;;1.10;0.90;;;15.20;67.10;;;;;;5133993;27;20657;-66
2023/11/10 07:02:56;;;;;;;1.25;1.02;;;15.20;67.10;;;;;;5134256;27;20188;-64
2023/11/10 07:05:28;;;;;;;0.98;0.75;;;15.20;67.30;;;;;;5134299;27;20204;-65
2023/11/10 07:07:54;;;;;;;0.77;0.60;;;15.20;67.30;;;;;;5134156;27;20183;-65
2023/11/10 07:10:20;;;;;;;1.15;0.77;;;15.20;67.20;;;;;;5134317;27;20177;-65
2023/11/10 07:12:45;;;;;;;1.33;0.85;;;15.30;67.30;;;;;;5134537;27;20177;-64
2023/11/10 07:15:11;;;;;;;1.95;0.68;;;15.40;67.10;;;;;;5133597;27;20252;-64
2023/11/10 07:17:37;;;;;;;2.47;0.90;;;15.50;67.00;;;;;;5134363;27;20316;-64
2023/11/10 07:20:06;;;;;;;2.10;0.90;;;15.70;66.80;;;;;;5133966;27;20181;-65
2023/11/10 07:22:32;;;;;;;2.50;1.05;;;15.90;66.50;;;;;;5133765;27;20246;-65
2023/11/10 07:25:03;;;;;;;1.40;0.80;;;16.10;66.20;;;;;;5133187;27;20238;-65
2023/11/10 07:27:28;;;;;;;1.15;0.82;;;16.30;65.60;;;;;;5134338;27;20259;-65
2023/11/10 07:29:54;;;;;;;1.65;0.70;;;16.40;65.20;;;;;;5133526;27;20267;-66
2023/11/10 07:32:19;;;;;;;1.08;0.60;;;16.40;65.00;;;;;;5133655;27;20540;-64
2023/11/10 07:34:46;;;;;;;0.93;0.70;;;16.50;65.00;;;;;;5134366;27;20590;-66
2023/11/10 07:37:11;;;;;;;1.35;0.70;;;16.50;64.90;;;;;;5133188;27;20253;-65
2023/11/10 07:39:37;;;;;;;0.82;0.82;;;16.60;64.80;;;;;;5134097;27;20626;-65
2023/11/10 07:42:03;;;;;;;1.25;0.75;;;16.70;64.80;;;;;;5133709;27;20176;-65
2023/11/10 07:44:29;;;;;;;1.00;0.82;;;16.80;64.40;;;;;;5133308;27;20172;-64
2023/11/10 07:46:54;;;;;;;1.63;0.75;;;16.90;64.30;;;;;;5134119;27;20187;-64
2023/11/10 07:49:20;;;;;;;2.80;0.70;;;17.00;64.20;;;;;;5132803;27;20212;-64
2023/11/10 07:51:46;;;;;;;2.63;0.73;;;17.10;64.00;;;;;;5133734;27;20223;-64
2023/11/10 07:54:17;;;;;;;2.83;0.90;;;17.30;63.60;;;;;;5133475;27;20201;-64
2023/11/10 07:56:45;;;;;;;3.60;1.33;;;17.40;63.60;;;;;;5133362;27;20255;-65
2023/11/10 07:59:11;;;;;;;1.98;1.13;;;17.50;63.50;;;;;;5133099;27;20192;-66
2023/11/10 08:01:37;;;;;;;2.55;1.00;;;17.60;63.20;;;;;;5133298;27;20199;-66
2023/11/10 08:04:02;;;;;;;1.92;0.85;;;17.60;63.10;;;;;;5132215;27;20268;-64
2023/11/10 08:06:28;;;;;;;2.78;0.90;;;17.70;63.00;;;;;;5133296;28;20219;-66
2023/11/10 08:08:53;;;;;;;4.35;1.10;;;17.70;63.20;;;;;;5133838;28;20581;-65
2023/11/10 08:11:19;;;;;;;3.30;0.70;;;17.70;63.00;;;;;;5132825;28;20674;-65
2023/11/10 08:13:45;;;;;;;7.10;1.02;;;17.70;63.00;;;;;;5133552;28;20191;-66
2023/11/10 08:16:10;;;;;;;1.50;1.00;;;17.70;62.90;;;;;;5133011;28;20263;-66
2023/11/10 08:18:37;;;;;;;2.97;0.80;;;17.70;63.30;;;;;;5133097;28;20260;-64
2023/11/10 08:21:02;;;;;;;3.25;1.02;;;17.70;63.20;;;;;;5133055;28;20199;-65
2023/11/10 08:23:28;;;;;;;1.23;0.80;;;17.70;63.30;;;;;;5133421;28;20601;-66
2023/11/10 08:25:53;;;;;;;2.05;0.75;;;17.80;63.40;;;;;;5132451;28;20586;-65
2023/11/10 08:28:19;;;;;;;1.70;0.80;;;17.70;63.20;;;;;;5133272;28;20267;-65
2023/11/10 08:30:47;;;;;;;1.50;0.90;;;17.80;63.50;;;;;;5133483;28;20212;-65
2023/11/10 08:33:13;;;;;;;5.57;1.10;;;17.80;63.50;;;;;;5132544;28;20168;-68
2023/11/10 08:35:38;;;;;;;3.75;0.85;;;17.70;63.60;;;;;;5133671;27;20180;-67
2023/11/10 08:38:04;;;;;;;2.95;1.02;;;17.60;63.50;;;;;;5137290;27;20646;-67
2023/11/10 08:40:30;;;;;;;1.05;0.90;;;17.60;63.80;;;;;;5136867;27;20180;-68
2023/11/10 08:42:55;;;;;;;2.33;0.85;;;17.50;64.10;;;;;;5137305;27;20214;-67
2023/11/10 08:45:24;;;;;;;1.48;0.90;;;17.50;64.10;;;;;;5137013;27;20200;-66
2023/11/10 08:47:49;;;;;;;1.83;0.93;;;17.50;64.20;;;;;;5136706;27;20216;-66
2023/11/10 08:50:15;;;;;;;3.78;1.05;;;17.50;64.10;;;;;;5137057;27;20697;-66
2023/11/10 08:52:42;;;;;;;5.03;1.02;;;17.50;64.40;;;;;;5136523;27;20614;-66
2023/11/10 08:55:10;;;;;;;2.88;0.93;;;17.50;64.50;;;;;;5137021;27;20204;-65
2023/11/10 08:57:38;;;;;;;2.97;1.02;;;17.50;64.20;;;;;;5137108;27;20229;-65
2023/11/10 09:00:06;;;;;;;1.77;0.90;;;17.40;64.50;;;;;;5136047;27;20173;-65
2023/11/10 09:02:32;;;;;;;3.72;1.10;;;17.30;64.80;;;;;;5119033;27;20208;-64
2023/11/10 09:05:00;;;;;;;2.97;0.95;;;17.20;65.00;;;;;;5137091;27;20243;-65
2023/11/10 09:07:27;;;;;;;5.88;1.20;;;17.10;65.30;;;;;;5136466;27;20164;-65
2023/11/10 09:09:52;;;;;;;2.42;1.20;;;17.10;65.40;;;;;;5136963;27;20631;-65
2023/11/10 09:12:21;;;;;;;1.83;0.90;;;17.10;65.30;;;;;;5136637;27;20192;-64
2023/11/10 09:14:46;;;;;;;1.55;1.20;;;17.10;65.20;;;;;;5136389;27;20172;-63
2023/11/10 09:17:12;;;;;;;1.23;0.70;;;17.10;64.90;;;;;;5136684;27;20175;-63
2023/11/10 09:19:38;;;;;;;3.72;1.00;;;17.10;64.70;;;;;;5136944;27;20184;-63
2023/11/10 09:22:03;;;;;;;1.73;1.08;;;17.00;64.60;;;;;;5135699;27;20180;-63
2023/11/10 09:24:29;;;;;;;1.88;0.90;;;17.00;64.60;;;;;;5136647;27;20168;-64
2023/11/10 09:26:59;;;;;;;3.08;1.23;;;16.90;64.70;;;;;;5136549;27;20588;-64
2023/11/10 09:29:25;;;;;;;2.08;0.80;;;16.90;64.70;;;;;;5136128;27;20176;-64
2023/11/10 09:31:51;;;;;;;2.72;1.38;;;16.90;64.70;;;;;;5136497;27;20231;-64
2023/11/10 09:34:18;;;;;;;5.30;1.20;;;16.90;64.80;;;;;;5136419;27;20199;-64
2023/11/10 09:36:43;;;;;;;3.10;0.95;;;16.90;64.90;;;;;;5135964;27;20550;-64
2023/11/10 09:39:10;;;;;;;2.45;1.00;;;16.90;64.80;;;;;;5130332;27;20638;-64
2023/11/10 09:41:38;;;;;;;1.27;0.80;;;16.90;64.60;;;;;;5126528;27;20176;-63
2023/11/10 09:44:05;;;;;;;1.92;1.00;;;16.90;64.70;;;;;;5124296;27;20711;-63
2023/11/10 09:46:31;;;;;;;2.47;1.00;;;16.80;64.80;;;;;;5106594;27;20235;-63
2023/11/10 09:48:56;;;;;;;1.60;0.75;;;16.80;64.90;;;;;;5124746;27;20286;-63
2023/11/10 09:51:22;;;;;;;2.72;1.20;;;16.80;65.10;;;;;;5106364;27;20169;-63
2023/11/10 09:53:48;;;;;;;2.40;1.30;;;16.80;65.30;;;;;;5109000;27;20180;-63
2023/11/10 09:56:13;;;;;;;3.95;1.33;;;16.70;65.40;;;;;;5116798;27;20284;-62
2023/11/10 09:58:39;;;;;;;2.88;1.08;;;16.80;65.60;;;;;;5136072;27;20264;-63
2023/11/10 10:01:06;;;;;;;4.28;1.10;;;16.80;65.60;;;;;;5117634;27;20574;-63
2023/11/10 10:03:32;;;;;;;1.95;1.20;;;16.80;65.60;;;;;;5117307;27;20255;-63
2023/11/10 10:05:59;;;;;;;3.80;1.17;;;16.80;65.60;;;;;;5135689;27;20293;-64
2023/11/10 10:08:25;;;;;;;2.80;1.08;;;16.80;65.60;;;;;;5135784;27;20164;-64
2023/11/10 10:10:52;;;;;;;2.72;1.27;;;16.80;65.70;;;;;;5135137;27;20181;-64
2023/11/10 10:13:18;;;;;;;1.55;1.00;;;16.70;65.50;;;;;;5135523;27;20588;-65
2023/11/10 10:15:44;;;;;;;2.33;0.85;;;16.80;65.60;;;;;;5135916;27;20168;-65
2023/11/10 10:18:09;;;;;;;2.35;1.08;;;16.80;65.80;;;;;;5134448;27;20175;-65
2023/11/10 10:20:36;;;;;;;1.27;0.90;;;16.80;65.70;;;;;;5135549;27;20180;-64
2023/11/10 10:23:01;;;;;;;2.95;1.15;;;16.80;65.70;;;;;;5135233;27;20200;-65
2023/11/10 10:25:27;;;;;;;3.80;1.08;;;16.80;65.70;;;;;;5134751;27;20287;-65
2023/11/10 10:27:53;;;;;;;3.03;1.20;;;16.80;65.60;;;;;;5135526;27;20164;-66
2023/11/10 10:30:19;;;;;;;2.72;1.17;;;16.80;65.60;;;;;;5135276;27;20191;-65
2023/11/10 10:32:45;;;;;;;3.33;1.00;;;16.80;65.60;;;;;;5134504;27;20173;-65
2023/11/10 10:35:14;;;;;;;5.72;1.02;;;16.80;65.60;;;;;;5135155;27;20181;-65
2023/11/10 10:37:40;;;;;;;2.95;1.13;;;16.80;65.60;;;;;;5135144;27;20477;-65
2023/11/10 10:40:09;;;;;;;4.85;1.48;;;16.80;65.90;;;;;;5134091;27;20172;-65
2023/11/10 10:42:35;;;;;;;3.78;1.13;;;16.80;65.80;;;;;;5135380;27;20635;-64
2023/11/10 10:45:02;;;;;;;1.67;1.02;;;16.80;66.00;;;;;;5116264;27;20682;-64
2023/11/10 10:47:27;;;;;;;1.42;0.85;;;16.80;65.70;;;;;;5134032;27;20187;-64
2023/11/10 10:49:54;;;;;;;1.70;0.73;;;16.70;65.90;;;;;;5116859;27;20180;-65
2023/11/10 10:52:19;;;;;;;2.47;0.95;;;16.70;65.70;;;;;;5106118;28;20203;-65
2023/11/10 10:54:46;;;;;;;1.50;0.77;;;16.70;65.60;;;;;;5088345;28;20643;-65
2023/11/10 10:57:13;;;;;;;2.22;0.70;;;16.70;65.70;;;;;;5079349;28;20283;-67
2023/11/10 10:59:38;;;;;;;2.40;0.80;;;16.70;65.70;;;;;;5113659;28;20192;-66
2023/11/10 11:02:05;;;;;;;2.95;1.10;;;16.70;65.70;;;;;;5114160;28;20169;-67
2023/11/10 11:04:53;;;;;;;1.98;0.93;;;16.70;65.70;;;;;;5095955;28;20251;-65
2023/11/10 11:07:33;;;;;;;2.97;0.90;;;16.70;65.80;;;;;;5097342;28;20180;-66
2023/11/10 11:10:24;;;;;;;1.45;0.80;;;16.70;65.80;;;;;;5096132;28;20169;-66
2023/11/10 11:13:29;;;;;;;2.63;1.20;;;16.70;66.20;;;;;;5113812;28;20222;-64
2023/11/10 11:16:24;;;;;;;4.60;1.52;;;16.60;66.40;;;;;;5097995;28;20241;-64
2023/11/10 11:19:03;;;;;;;2.28;1.08;;;16.60;66.40;;;;;;5069038;28;20234;-66
2023/11/10 11:21:29;;;;;;;4.97;1.38;;;16.50;66.50;;;;;;5113076;28;20583;-67
2023/11/10 11:23:56;;;;;;;3.80;1.10;;;16.50;66.60;;;;;;5079121;28;20673;-66
2023/11/10 11:26:23;;;;;;;4.75;1.20;;;16.50;66.60;;;;;;5113144;28;20208;-66
2023/11/10 11:28:48;;;;;;;2.03;0.85;;;16.50;66.70;;;;;;5113142;28;20177;-66
2023/11/10 11:31:14;;;;;;;2.97;1.23;;;16.40;66.60;;;;;;5113434;28;20177;-66
2023/11/10 11:33:46;;;;;;;4.30;1.30;;;16.40;66.60;;;;;;5113669;28;20180;-66
2023/11/10 11:36:16;;;;;;;2.60;1.40;;;16.40;66.60;;;;;;5112528;28;20575;-67
2023/11/10 11:38:44;;;;;;;3.58;1.30;;;16.40;66.70;;;;;;5113863;28;20181;-67
2023/11/10 11:41:12;;;;;;;1.83;1.00;;;16.40;66.70;;;;;;5113513;28;20204;-66
2023/11/10 11:43:54;;;;;;;3.47;0.80;;;16.40;66.80;;;;;;5094839;28;20177;-66
2023/11/10 11:46:22;;;;;;;3.53;1.02;;;16.40;66.80;;;;;;5112957;28;20212;-63
2023/11/10 11:48:48;;;;;;;4.65;0.98;;;16.40;66.90;;;;;;5111839;28;20232;-63
2023/11/10 11:51:16;;;;;;;2.38;1.02;;;16.40;67.20;;;;;;5113196;28;20183;-62
2023/11/10 11:53:42;;;;;;;1.10;0.80;;;16.30;67.00;;;;;;5112974;28;20256;-63
2023/11/10 11:56:08;;;;;;;2.33;0.98;;;16.30;67.10;;;;;;5112033;28;20252;-63
2023/11/10 11:58:34;;;;;;;3.13;1.25;;;16.30;67.20;;;;;;5113433;28;20572;-64
2023/11/10 12:01:00;;;;;;;2.30;1.15;;;16.30;67.40;;;;;;5113101;28;20169;-63
2023/11/10 12:03:27;;;;;;;2.35;1.13;;;16.20;67.30;;;;;;5112554;28;20212;-63
2023/11/10 12:05:53;;;;;;;2.35;1.10;;;16.20;66.80;;;;;;5113178;28;20677;-63
2023/11/10 12:08:21;;;;;;;3.47;1.42;;;16.20;67.00;;;;;;5122944;28;20266;-62
2023/11/10 12:10:50;;;;;;;2.28;1.30;;;16.20;68.20;;;;;;5115882;27;20185;-63
2023/11/10 12:13:16;;;;;;;1.10;1.00;;;16.20;67.40;;;;;;5122330;27;20175;-63
2023/11/10 12:15:42;;;;;;;3.70;0.88;;;16.30;67.30;;;;;;5122155;27;20176;-64
2023/11/10 12:18:08;;;;;;;4.72;1.23;;;16.30;67.00;;;;;;5139690;27;20175;-64
2023/11/10 12:20:37;;;;;;;1.92;1.10;;;16.30;66.90;;;;;;5140404;27;20630;-64
2023/11/10 12:23:06;;;;;;;7.63;1.70;;;16.30;66.70;;;;;;5140261;27;20176;-64
2023/11/10 12:25:38;;;;;;;3.03;1.70;;;16.30;66.70;;;;;;5139608;27;20223;-65
2023/11/10 12:28:10;;;;;;;4.33;1.80;;;16.30;66.70;;;;;;5138921;27;20881;-63
2023/11/10 12:30:35;;;;;;;6.10;1.52;;;16.40;66.80;;;;;;5140418;27;20419;-64
2023/11/10 12:33:02;;;;;;;2.10;1.45;;;16.30;67.10;;;;;;5104478;27;20255;-64
2023/11/10 12:35:27;;;;;;;4.85;1.27;;;16.30;66.90;;;;;;5122254;27;20284;-67
2023/11/10 12:37:56;;;;;;;3.20;1.55;;;16.30;66.80;;;;;;5139786;27;20639;-67
2023/11/10 12:40:24;;;;;;;2.20;1.27;;;16.20;66.70;;;;;;5140294;27;20188;-67
2023/11/10 12:42:50;;;;;;;3.92;1.70;;;16.30;66.60;;;;;;5140399;27;20164;-66
2023/11/10 12:45:16;;;;;;;5.15;1.30;;;16.20;66.60;;;;;;5139378;27;20248;-66